This is the latest recevied weather packets stored in our database for station/object WP4PW. If no packets are shown the sender has not sent any weather packets the latest 10 day(s).
| Time | Temp. | Humidity | Pressure | Rain* | Wind** | Luminosity | Snow |
|---|---|---|---|---|---|---|---|
| 1777991016 | 29.44° C | 82% | 1022.1 hPa | 0 mm | - | 761 W/m² | - |
| 1777990713 | 28.89° C | 83% | 1022 hPa | 0 mm | - | 695 W/m² | - |
| 1777990410 | 29.44° C | 82% | 1022 hPa | 0 mm | - | 290 W/m² | - |
| 1777989802 | 28.89° C | 84% | 1022.1 hPa | 0 mm | - | 773 W/m² | - |
| 1777989500 | 29.44° C | 83% | 1022.2 hPa | 0 mm | - | 301 W/m² | - |
| 1777989195 | 29.44° C | 82% | 1022 hPa | 0 mm | - | 721 W/m² | - |
| 1777988892 | 29.44° C | 84% | 1021.9 hPa | 0 mm | - | 729 W/m² | - |
| 1777988589 | 28.89° C | 84% | 1022 hPa | 0 mm | - | 438 W/m² | - |
| 1777988285 | 27.78° C | 87% | 1021.8 hPa | 0 mm | - | 703 W/m² | - |
| 1777987982 | 27.78° C | 89% | 1021.9 hPa | 0 mm | - | 201 W/m² | - |
| 1777987678 | 28.33° C | 87% | 1021.9 hPa | 0 mm | - | 187 W/m² | - |
| 1777987375 | 28.33° C | 87% | 1021.6 hPa | 0 mm | - | 320 W/m² | - |
| 1777987073 | 27.78° C | 87% | 1021.8 hPa | 0 mm | - | 236 W/m² | - |
| 1777986770 | 27.78° C | 87% | 1022.1 hPa | 0 mm | - | 207 W/m² | - |
| 1777986467 | 27.78° C | 87% | 1021.8 hPa | 0 mm | - | 206 W/m² | - |
| 1777986166 | 28.33° C | 87% | 1021.7 hPa | 0 mm | - | 167 W/m² | - |
| 1777985862 | 27.78° C | 88% | 1021.6 hPa | 0 mm | - | 274 W/m² | - |
| 1777985560 | 28.33° C | 87% | 1021.5 hPa | 0 mm | - | 169 W/m² | - |
| 1777985256 | 27.78° C | 87% | 1021.6 hPa | 0 mm | - | 277 W/m² | - |
| 1777984953 | 28.33° C | 86% | 1021.5 hPa | 0 mm | - | 120 W/m² | - |
| 1777984649 | 28.33° C | 85% | 1021.6 hPa | 0 mm | - | 152 W/m² | - |
| 1777984346 | 28.89° C | 85% | 1021.6 hPa | 0 mm | - | 169 W/m² | - |
| 1777984042 | 28.33° C | 87% | 1021.5 hPa | 0 mm | - | 455 W/m² | - |
| 1777983740 | 27.22° C | 89% | 1021.5 hPa | 0 mm | - | 119 W/m² | - |
| 1777983436 | 27.78° C | 88% | 1021.3 hPa | 0 mm | - | 91 W/m² | - |
* Rain latest hour (hover to see other rain measurements)
** Current wind speed in m/s (hover to see current wind gust speed)